Aeroporto :
LOGIN :

Iscrizione | Disclaimer

   EN    FR    IT 

 










Sommario :    VFR   VFR Marginale   IFR   IFR Intensivo   IFR Molto Intensivo
Visibilità : 
Base nubi : 
>= 8 km
>= 3000ft
5 / 8 km
1000 / 3000 ft
1500m / 5 km
500 / 1000 ft
800 / 1500m
200 / 500 ft
< 800m
< 200 ft
Simboli :   Temporali  Nebbia  Neve Forte  Precipitazioni Forti  Vento > 20 kt
SIGMETs :   Varie  Temporali  Ghiacco  Turbolenza  Onda orograficha  Ceneri Vulcaniche






- Altitudine del aeroporto : 1789 ft
- Codice IATA : PRN


BKPR - Pristina

ULTIMO METAR :
  • 061230Z 03004KT 4000 -RA BR SCT010 BKN040 17/15 Q1016 NOSIG

METARs OBSOLETI :
  • 061200Z 02006KT 4000 -RA BR SCT010 FEW030TCU BKN040 17/14 Q1016 RERA NOSIG
  • 061130Z 03007KT 4000 RA BR SCT008 SCT025CB BKN030 17/15 Q1016 NOSIG
  • 061100Z 02008KT 6000 -RA SCT010 FEW030CB BKN040 17/14 Q1016 NOSIG
  • 061030Z 02009KT 6000 -RA SCT010 FEW030CB BKN040 17/15 Q1016 NOSIG
  • 061000Z 01008KT 9999 FEW010 FEW030CB BKN040 17/15 Q1015 NOSIG

TAF TAF BKPR
Valido dal 06 a 12 ore il 07 a 12 ore UTC


061130Z 0612/0712 35010KT 9999 -RA SCT020 BKN040
TEMPO 0612/0618 3000 SHRA SCT25CB
TEMPO 0709/0712 VRB15G25KT 3000 TSRA



MetMap, La meteo Aeronautica in un colpo d'occhio ! - Copyright ORBIFLY Dicembre 2007 - Disclaimer

ORBIFLY MET'MAP TEAM :

Programmazione e sviluppo : Alexandra Zaïnal
Concezione : Baudouin d'Aumeries
Aiuto per la programmazione : Marc-Olivier Méhu
Supporto tecnico e logistico : Manuel Goepfert
Aiuto per la traduzione : Arnaldo La Scala

Contatto : metmap@orbifly.com




FONTI E CREDITI :

   NOAA